Latest Weather Observations for Mareeba

IDQ60801

Issued at 8:02 pm EST Saturday 30 May 2015 (issued every 30 minutes, with the page automatically refreshed every 10 minutes)

About weather observations | Map of weather stations | Latest weather observations for QLD | Other Formats
Station Details ID: 031210 Name: MAREEBA AIRPORT Lat: -17.07 Lon: 145.43 Height: 471.93 m
Data from the previous 72 hours. | See also: Recent months at Mareeba
Date/Time
EST
Temp
°C
App
Temp
°C
Dew
Point
Rel
Hum
%
Delta-T
°C
Wind Press
QNH
hPa
Press
MSL
hPa
Rain
since 9 am
mm
Dir
 
Spd
km/h
Gust
km/h
Spd
kts
Gust
kts
30/08:00pm 21.2 23.5 18.6 85 1.7 ENE 4 11 2 6 1018.6 - 0.0
30/07:30pm 21.3 24.0 18.7 85 1.7 NNE 2 7 1 4 1018.3 - 0.0
30/07:00pm 21.6 23.3 18.6 83 1.9 ENE 7 13 4 7 1018.0 - 0.0
30/06:30pm 21.6 23.6 19.2 86 1.5 NE 7 15 4 8 1017.7 - 0.0
30/06:00pm 22.0 23.9 19.0 83 1.9 NE 7 11 4 6 1017.4 1015.2 0.0
30/05:30pm 22.4 23.5 18.8 80 2.3 NE 11 15 6 8 1017.1 - 0.0
30/05:00pm 23.3 24.3 18.6 75 3.0 NE 11 15 6 8 1016.8 - 0.0
30/04:30pm 24.1 24.4 18.7 72 3.5 NE 15 24 8 13 1016.4 - 0.0
30/04:00pm 26.0 26.4 18.2 62 5.0 ENE 13 20 7 11 1016.3 - 0.0
30/03:30pm 26.0 26.0 18.2 62 5.0 NE 15 24 8 13 1016.4 - 0.0
30/03:00pm 26.1 26.8 18.8 64 4.7 NE 13 22 7 12 1016.5 1014.2 0.0
30/02:30pm 25.8 25.6 18.5 64 4.7 NNE 17 24 9 13 1016.8 - 0.0
30/02:00pm 26.0 27.3 19.2 66 4.5 ENE 11 22 6 12 1017.0 - 0.0
30/01:30pm 26.0 25.7 18.2 62 5.0 ENE 17 30 9 16 1017.8 - 0.0
30/01:00pm 25.7 26.1 18.9 66 4.4 E 15 24 8 13 1018.2 - 0.0
30/12:30pm 25.2 25.8 18.6 67 4.3 E 13 19 7 10 1018.7 - 0.0
30/12:00pm 24.2 24.9 18.8 72 3.5 E 13 17 7 9 1019.4 1017.2 0.0
30/11:30am 24.0 24.6 18.6 72 3.5 SE 13 20 7 11 1019.7 - 0.0
30/11:00am 24.2 24.3 18.4 70 3.7 SSE 15 17 8 9 1020.2 - 0.0
30/10:30am 24.4 24.6 17.6 66 4.3 SE 13 17 7 9 1020.4 - 0.0
30/10:00am 24.0 24.2 17.7 68 4.0 ESE 13 20 7 11 1020.5 - 0.0
30/09:30am 22.8 22.3 17.7 73 3.2 SE 17 22 9 12 1020.8 - 0.0
30/09:00am 22.9 23.8 18.4 76 2.9 SE 11 15 6 8 1020.8 1018.5 0.0
30/08:30am 21.9 22.2 17.9 78 2.5 ESE 13 17 7 9 1020.5 - 0.0
30/08:00am 21.0 21.6 17.6 81 2.1 ESE 11 13 6 7 1020.1 - 0.0
30/07:30am 20.3 21.0 17.9 86 1.5 SSE 11 15 6 8 1019.7 - 0.0
30/07:00am 18.9 20.0 17.0 89 1.2 SE 7 9 4 5 1019.6 - 0.0
30/06:30am 18.6 19.6 16.8 89 1.1 ESE 7 13 4 7 1019.2 - 0.0
30/06:00am 18.7 19.2 16.5 87 1.3 ESE 9 11 5 6 1018.7 1016.4 0.0
30/05:30am 18.4 18.9 16.6 89 1.1 ESE 9 13 5 7 1018.5 - 0.0
30/05:00am 17.4 18.0 15.4 88 1.2 SSE 6 9 3 5 1018.5 - 0.0
30/04:30am 18.0 19.8 15.6 86 1.4 CALM 0 0 0 0 1018.5 - 0.0
30/04:00am 18.6 20.8 16.6 88 1.2 CALM 0 0 0 0 1018.5 - 0.0
30/03:30am 18.9 20.0 16.5 86 1.5 E 6 9 3 5 1018.5 - 0.0
30/03:00am 19.3 19.2 16.9 86 1.5 SSE 13 17 7 9 1018.6 1016.3 0.0
30/02:30am 18.8 18.5 16.4 86 1.5 SSE 13 17 7 9 1019.2 - 0.0
30/02:00am 19.3 20.2 16.7 85 1.6 E 7 11 4 6 1019.6 - 0.0
30/01:30am 18.6 19.2 16.8 89 1.1 SSE 9 11 5 6 1020.0 - 0.0
30/01:00am 19.5 21.9 16.9 85 1.6 CALM 0 0 0 0 1020.3 - 0.0
30/12:30am 19.4 21.7 16.8 85 1.6 CALM 0 0 0 0 1020.5 - 0.0
30/12:00am 19.7 20.5 16.3 81 2.1 NNE 7 9 4 5 1020.5 1018.2 0.0
 
Date/Time
EST
Temp
°C
App
Temp
°C
Dew
Point
Rel
Hum
%
Delta-T
°C
Wind Press
QNH
hPa
Press
MSL
hPa
Rain
since 9 am
mm
Dir
 
Spd
km/h
Gust
km/h
Spd
kts
Gust
kts
29/11:30pm 20.3 21.2 16.5 79 2.3 SE 7 13 4 7 1020.7 - 0.0
29/11:00pm 20.1 19.4 16.5 80 2.2 SSE 15 19 8 10 1020.7 - 0.0
29/10:30pm 19.8 19.1 16.4 81 2.1 S 15 17 8 9 1020.5 - 0.0
29/10:00pm 19.9 19.5 16.2 79 2.3 S 13 17 7 9 1020.6 - 0.0
29/09:30pm 20.4 20.0 16.2 77 2.6 SSE 13 19 7 10 1020.7 - 0.0
29/09:00pm 20.0 19.2 16.0 78 2.4 SSE 15 20 8 11 1020.5 1018.2 0.0
29/08:30pm 20.3 19.4 15.9 76 2.7 SSE 15 19 8 10 1020.5 - 0.0
29/08:00pm 20.3 19.8 15.9 76 2.7 SSE 13 19 7 10 1020.4 - 0.0
29/07:30pm 20.2 19.4 16.0 77 2.6 SSE 15 24 8 13 1020.1 - 0.0
29/07:00pm 20.0 19.8 15.6 76 2.7 SSE 11 15 6 8 1019.9 - 0.0
29/06:30pm 20.8 20.6 15.8 73 3.0 SE 11 15 6 8 1019.7 - 0.0
29/06:00pm 22.0 21.0 15.6 67 3.9 ESE 15 19 8 10 1019.4 1017.2 0.0
29/05:30pm 22.6 21.5 15.2 63 4.5 ESE 15 20 8 11 1018.9 - 0.0
29/05:00pm 23.7 22.0 14.7 57 5.5 E 17 26 9 14 1018.6 - 0.0
29/04:30pm 24.5 22.6 15.1 55 5.8 ESE 19 28 10 15 1018.4 - 0.0
29/04:00pm 24.2 22.5 14.6 55 5.8 ESE 17 26 9 14 1018.4 - 0.0
29/03:30pm 24.7 22.6 15.1 55 5.9 SE 20 30 11 16 1018.2 - 0.0
29/03:00pm 24.9 23.0 15.2 54 5.9 SE 19 28 10 15 1018.2 1015.9 0.0
29/02:30pm 25.1 23.0 16.3 58 5.5 SE 22 30 12 16 1018.1 - 0.0
29/02:00pm 25.2 23.0 14.9 52 6.3 ESE 20 30 11 16 1018.3 - 0.0
29/01:30pm 25.3 23.3 15.6 55 6.0 ESE 20 32 11 17 1018.5 - 0.0
29/01:00pm 24.4 22.6 15.6 58 5.4 ESE 19 26 10 14 1019.0 - 0.0
29/12:30pm 24.6 23.3 15.8 58 5.4 ENE 17 24 9 13 1019.3 - 0.0
29/12:00pm 24.8 23.2 16.0 58 5.5 E 19 28 10 15 1019.7 1017.5 0.0
29/11:30am 25.3 23.3 15.6 55 6.0 E 20 28 11 15 1020.2 - 0.0
29/11:00am 24.7 23.2 15.3 56 5.8 E 17 24 9 13 1020.6 - 0.0
29/10:30am 24.4 22.4 16.4 61 5.0 SSE 22 30 12 16 1020.9 - 0.0
29/10:00am 23.5 22.0 16.8 66 4.2 ESE 20 32 11 17 1021.1 - 0.0
29/09:30am 23.1 21.8 15.9 64 4.4 ESE 17 24 9 13 1021.0 - 0.0
29/09:00am 23.5 22.3 16.1 63 4.6 SE 17 24 9 13 1020.9 1018.7 0.0
29/08:30am 22.7 22.8 16.5 68 3.9 E 11 19 6 10 1020.5 - 0.0
29/08:00am 21.9 20.4 16.2 70 3.5 SE 19 28 10 15 1020.4 - 0.0
29/07:30am 21.1 20.7 16.1 73 3.1 ESE 13 19 7 10 1020.1 - 0.0
29/07:00am 19.8 20.2 16.3 80 2.1 ESE 9 13 5 7 1019.9 - 0.0
29/06:30am 20.2 19.7 16.0 77 2.6 ESE 13 20 7 11 1019.5 - 0.0
29/06:00am 19.5 19.7 15.8 79 2.2 ESE 9 11 5 6 1019.4 1017.2 0.0
29/05:30am 20.4 20.8 16.4 78 2.5 ESE 9 11 5 6 1019.0 - 0.0
29/05:00am 19.6 20.4 16.4 82 2.0 SE 7 11 4 6 1018.8 - 0.0
29/04:30am 20.1 20.6 16.5 80 2.2 E 9 11 5 6 1018.6 - 0.0
29/04:00am 19.6 20.3 17.0 85 1.6 ESE 9 13 5 7 1018.7 - 0.0
29/03:30am 18.2 18.9 16.2 88 1.2 SE 7 9 4 5 1018.9 - 0.0
29/03:00am 18.2 20.2 16.0 87 1.3 CALM 0 0 0 0 1019.1 1016.9 0.0
29/02:30am 18.8 21.1 16.8 88 1.2 CALM 0 0 0 0 1019.3 - 0.0
29/02:00am 18.0 20.0 16.0 88 1.2 CALM 0 0 0 0 1019.5 - 0.0
29/01:30am 17.9 19.8 15.7 87 1.3 CALM 0 7 0 4 1019.7 - 0.0
29/01:00am 18.0 19.7 15.3 84 1.6 CALM 0 0 0 0 1020.0 - 0.0
29/12:30am 18.7 19.9 15.8 83 1.8 SE 4 11 2 6 1020.1 - 0.0
29/12:00am 19.0 18.9 16.0 83 1.8 SSE 11 15 6 8 1020.2 1017.9 0.0
 
Date/Time
EST
Temp
°C
App
Temp
°C
Dew
Point
Rel
Hum
%
Delta-T
°C
Wind Press
QNH
hPa
Press
MSL
hPa
Rain
since 9 am
mm
Dir
 
Spd
km/h
Gust
km/h
Spd
kts
Gust
kts
28/11:30pm 19.4 18.5 15.9 80 2.1 SE 15 20 8 11 1020.3 - 0.0
28/11:00pm 19.6 18.5 16.3 81 2.0 SSE 17 26 9 14 1020.5 - 0.0
28/10:30pm 19.0 19.0 16.2 84 1.7 SSE 11 15 6 8 1020.7 - 0.0
28/10:00pm 19.3 18.5 16.2 82 1.9 SE 15 20 8 11 1020.8 - 0.0
28/09:30pm 19.6 18.5 16.3 81 2.0 SE 17 24 9 13 1020.8 - 0.0
28/09:00pm 19.7 18.7 16.5 82 2.0 SE 17 20 9 11 1020.8 1018.5 0.0
28/08:30pm 19.4 18.3 16.4 83 1.8 SE 17 24 9 13 1020.4 - 0.0
28/08:00pm 19.5 18.3 16.2 81 2.0 SSE 17 26 9 14 1020.2 - 0.0
28/07:30pm 20.0 18.4 16.0 78 2.4 SE 19 26 10 14 1019.7 - 0.0
28/07:00pm 20.4 18.9 16.2 77 2.6 SE 19 26 10 14 1019.5 - 0.0
28/06:30pm 20.8 19.2 16.4 76 2.7 SE 20 28 11 15 1019.3 - 0.0
28/06:00pm 21.0 20.1 16.8 77 2.6 SE 17 22 9 12 1019.0 1016.8 0.0
28/05:30pm 21.5 19.2 16.7 74 3.0 SSE 24 35 13 19 1018.6 - 0.0
28/05:00pm 23.0 21.7 16.8 68 3.9 SE 19 30 10 16 1018.3 - 0.0
28/04:30pm 23.5 21.1 16.5 65 4.4 SE 24 39 13 21 1018.0 - 0.0
28/04:00pm 24.8 22.3 17.0 62 4.9 SE 26 41 14 22 1017.7 - 0.0
28/03:30pm 25.4 22.8 16.8 59 5.4 SE 26 39 14 21 1017.3 - 0.0
28/03:00pm 25.4 22.6 16.3 57 5.7 SSE 26 33 14 18 1017.3 1015.1 0.0
28/02:30pm 26.4 24.2 16.0 52 6.5 SSE 22 30 12 16 1017.3 - 0.0
28/02:00pm 25.7 23.4 15.7 54 6.2 SE 22 28 12 15 1017.4 - 0.0
28/01:30pm 25.6 23.5 16.2 56 5.9 SSE 22 28 12 15 1017.9 - 0.0
28/01:00pm 25.1 22.5 16.0 57 5.7 SSE 24 35 13 19 1018.2 - 0.0
28/12:30pm 25.1 22.9 17.0 60 5.1 SE 24 35 13 19 1018.6 - 0.0
28/12:00pm 24.9 21.6 17.1 62 4.9 SE 30 39 16 21 1019.1 1016.9 0.0
28/11:30am 24.8 21.8 16.8 61 5.0 SE 28 39 15 21 1019.5 - 0.0
28/11:00am 24.3 21.9 16.3 61 5.0 SE 24 39 13 21 1020.0 - 0.0
28/10:30am 24.9 22.4 16.1 58 5.5 ESE 24 35 13 19 1020.3 - 0.0
28/10:00am 24.4 21.8 15.9 59 5.3 SE 24 35 13 19 1020.4 - 0.0
28/09:30am 23.4 19.6 15.7 62 4.7 SE 30 41 16 22 1020.5 - 0.0
28/09:00am 22.9 20.0 16.2 66 4.1 SE 26 37 14 20 1020.4 1018.1 0.0
28/08:30am 21.9 19.6 15.7 68 3.8 SE 22 30 12 16 1020.3 - 0.0
28/08:00am 21.4 19.8 16.1 72 3.3 SE 19 26 10 14 1020.1 - 0.0
28/07:30am 20.2 19.9 16.4 79 2.3 SE 13 22 7 12 1019.9 - 0.0
28/07:00am 19.5 18.3 16.2 81 2.0 SSE 17 24 9 13 1019.4 - 0.0
28/06:30am 19.1 18.3 16.1 83 1.8 SE 15 20 8 11 1019.2 - 0.0
28/06:00am 19.5 18.4 16.3 82 2.0 SE 17 24 9 13 1018.8 1016.5 0.0
28/05:30am 19.3 18.9 16.3 83 1.8 SE 13 19 7 10 1018.5 - 0.0
28/05:00am 19.3 18.9 16.2 82 1.9 SE 13 17 7 9 1018.3 - 0.0
28/04:30am 19.5 18.3 16.2 81 2.0 SE 17 24 9 13 1018.0 - 0.0
28/04:00am 19.7 18.2 16.3 81 2.1 SE 19 26 10 14 1017.9 - 0.0
28/03:30am 19.2 18.9 16.4 84 1.7 SE 13 17 7 9 1017.9 - 0.0
28/03:00am 19.7 18.6 16.3 81 2.1 SSE 17 24 9 13 1017.8 1015.5 0.0
28/02:30am 19.4 17.9 16.4 83 1.8 SSE 19 24 10 13 1018.0 - 0.0
28/02:00am 19.4 18.3 16.4 83 1.8 SSE 17 20 9 11 1018.1 - 0.0
28/01:30am 19.7 19.0 16.5 82 2.0 SSE 15 26 8 14 1018.4 - 0.0
28/01:00am 19.5 19.3 16.7 84 1.7 SSE 13 17 7 9 1018.7 - 0.0
28/12:30am 19.4 19.9 16.6 84 1.7 SSE 9 13 5 7 1018.7 - 0.0
28/12:00am 19.9 20.5 16.7 82 2.0 SSE 9 13 5 7 1019.0 1016.8 0.0
 
Date/Time
EST
Temp
°C
App
Temp
°C
Dew
Point
Rel
Hum
%
Delta-T
°C
Wind Press
QNH
hPa
Press
MSL
hPa
Rain
since 9 am
mm
Dir
 
Spd
km/h
Gust
km/h
Spd
kts
Gust
kts
27/11:30pm 20.2 21.0 17.2 83 1.9 SE 9 13 5 7 1019.3 - 0.0
27/11:00pm 20.1 21.1 16.9 82 2.0 ESE 7 11 4 6 1019.6 - 0.0
27/10:30pm 20.3 21.4 17.1 82 2.0 ESE 7 13 4 7 1019.9 - 0.0
27/10:00pm 19.9 21.9 16.9 83 1.9 E 2 7 1 4 1020.2 - 0.0
27/09:30pm 19.9 20.5 16.9 83 1.9 SE 9 11 5 6 1020.3 - 0.0
27/09:00pm 20.4 21.0 16.8 80 2.2 SE 9 13 5 7 1020.1 1017.8 0.0
27/08:30pm 19.9 20.3 16.3 80 2.2 SSE 9 13 5 7 1019.9 - 0.0

Other Formats:

Comma delimited format used in spreadsheet applications
http://www.bom.gov.au/fwo/IDQ60801/IDQ60801.95286.axf

JavaScript Object Notation format (JSON) in row-major order
http://www.bom.gov.au/fwo/IDQ60801/IDQ60801.95286.json